createdAt,value
2018-09-28T00:00:02.603Z,86.30
2018-09-28T00:01:02.579Z,86.15
2018-09-28T00:02:02.562Z,86.10
2018-09-28T00:03:02.543Z,86.10
2018-09-28T00:04:02.521Z,86.34
2018-09-28T00:05:02.512Z,86.01
2018-09-28T00:06:02.486Z,85.63
2018-09-28T00:07:02.466Z,85.72
2018-09-28T00:08:02.443Z,85.77
2018-09-28T00:09:02.424Z,85.53
2018-09-28T00:10:02.411Z,85.63
2018-09-28T00:11:02.386Z,85.72
2018-09-28T00:12:02.365Z,85.44
2018-09-28T00:13:02.344Z,84.96
2018-09-28T00:14:02.327Z,85.82
2018-09-28T00:15:02.306Z,85.91
2018-09-28T00:16:02.288Z,85.53
2018-09-28T00:17:02.269Z,85.63
2018-09-28T00:18:02.248Z,85.63
2018-09-28T00:19:02.230Z,85.82
2018-09-28T00:20:02.233Z,85.82
2018-09-28T00:21:02.191Z,85.82
2018-09-28T00:22:02.169Z,85.25
2018-09-28T00:23:02.150Z,85.34
2018-09-28T00:24:02.131Z,85.34
2018-09-28T00:25:02.114Z,85.34
2018-09-28T00:26:02.150Z,85.82
2018-09-28T00:27:02.089Z,86.20
2018-09-28T00:28:02.052Z,85.82
2018-09-28T00:29:02.034Z,86.10
2018-09-28T00:30:02.017Z,86.01
2018-09-28T00:31:01.996Z,86.30
2018-09-28T00:32:01.973Z,86.01
2018-09-28T00:33:01.955Z,85.91
2018-09-28T00:34:01.934Z,86.10
2018-09-28T00:35:01.915Z,86.30
2018-09-28T00:36:01.983Z,86.77
2018-09-28T00:37:01.878Z,86.68
2018-09-28T00:38:01.860Z,86.68
2018-09-28T00:39:01.837Z,87.06
2018-09-28T00:40:01.817Z,86.96
2018-09-28T00:41:01.806Z,86.87
2018-09-28T00:42:01.777Z,86.58
2018-09-28T00:43:01.758Z,86.87
2018-09-28T00:44:01.743Z,86.96
2018-09-28T00:45:01.717Z,87.25
2018-09-28T00:46:01.699Z,87.02
2018-09-28T00:47:01.679Z,87.02
2018-09-28T00:48:01.662Z,87.40
2018-09-28T00:49:01.691Z,87.68
2018-09-28T00:50:01.624Z,87.87
2018-09-28T00:51:01.602Z,87.87
2018-09-28T00:52:01.583Z,88.26
2018-09-28T00:53:01.561Z,88.26
2018-09-28T00:54:01.541Z,89.12
2018-09-28T00:55:01.525Z,89.02
2018-09-28T00:56:01.505Z,88.92
2018-09-28T00:57:01.497Z,88.26
2018-09-28T00:58:01.465Z,88.35
2018-09-28T00:59:01.441Z,87.87
2018-09-28T01:00:01.423Z,88.07
2018-09-28T01:01:01.407Z,87.30
2018-09-28T01:02:01.383Z,86.82
2018-09-28T01:03:01.363Z,87.30
2018-09-28T01:04:01.348Z,87.15
2018-09-28T01:05:01.323Z,86.77
2018-09-28T01:06:01.304Z,87.44
2018-09-28T01:07:01.288Z,87.87
2018-09-28T01:08:01.270Z,87.35
2018-09-28T01:09:01.245Z,86.87
2018-09-28T01:10:01.225Z,87.35
2018-09-28T01:11:01.207Z,87.21
2018-09-28T01:12:01.184Z,87.02
2018-09-28T01:13:01.165Z,86.77
2018-09-28T01:14:01.147Z,87.11
2018-09-28T01:15:01.124Z,87.11
2018-09-28T01:16:01.109Z,87.40
2018-09-28T01:17:01.089Z,87.78
2018-09-28T01:18:01.070Z,88.07
2018-09-28T01:19:01.047Z,87.68
2018-09-28T01:20:01.035Z,87.87
2018-09-28T01:21:01.006Z,87.59
2018-09-28T01:22:00.986Z,88.16
2018-09-28T01:23:00.973Z,87.59
2018-09-28T01:24:00.947Z,87.87
2018-09-28T01:25:00.926Z,88.16
2018-09-28T01:26:00.907Z,88.26
2018-09-28T01:27:00.887Z,88.26
2018-09-28T01:28:00.867Z,88.45
2018-09-28T01:29:00.850Z,88.83
2018-09-28T01:30:00.828Z,88.26
2018-09-28T01:31:00.808Z,88.88
2018-09-28T01:32:00.788Z,88.83
2018-09-28T01:33:00.767Z,88.88
2018-09-28T01:34:00.748Z,89.45
2018-09-28T01:35:00.732Z,89.54
2018-09-28T01:36:00.746Z,89.17
2018-09-28T01:37:00.688Z,89.54
2018-09-28T01:38:00.668Z,89.45
2018-09-28T01:39:00.648Z,90.31
2018-09-28T01:40:00.629Z,89.83
2018-09-28T01:41:00.609Z,90.12
2018-09-28T01:42:00.586Z,89.74
2018-09-28T01:43:00.572Z,89.93
2018-09-28T01:44:00.547Z,90.22
2018-09-28T01:45:00.527Z,90.12
2018-09-28T01:46:00.511Z,90.79
2018-09-28T01:47:00.487Z,90.69
2018-09-28T01:48:00.480Z,90.22
2018-09-28T01:49:00.445Z,90.59
2018-09-28T01:50:00.438Z,90.59
2018-09-28T01:51:00.410Z,91.17
2018-09-28T01:52:00.386Z,90.98
2018-09-28T01:53:00.365Z,90.50
2018-09-28T01:54:00.352Z,90.79
2018-09-28T01:55:00.327Z,90.59
2018-09-28T01:56:00.306Z,90.41
2018-09-28T01:57:00.286Z,90.17
2018-09-28T01:58:00.265Z,90.36
2018-09-28T01:59:00.268Z,90.45
2018-09-28T02:00:00.229Z,90.07
2018-09-28T02:01:00.211Z,89.97
2018-09-28T02:02:00.186Z,89.40
2018-09-28T02:03:00.168Z,90.17
2018-09-28T02:04:00.144Z,89.88
2018-09-28T02:05:00.140Z,90.26
2018-09-28T02:06:00.104Z,90.26
2018-09-28T02:07:00.084Z,90.83
2018-09-28T02:08:00.064Z,90.17
2018-09-28T02:09:00.060Z,89.50
2018-09-28T02:10:00.024Z,89.50
2018-09-28T02:11:00.003Z,89.50
2018-09-28T02:11:59.983Z,90.17
2018-09-28T02:12:59.964Z,90.17
2018-09-28T02:13:59.942Z,90.17
2018-09-28T02:14:59.923Z,89.54
2018-09-28T02:15:59.907Z,90.02
2018-09-28T02:16:59.884Z,89.64
2018-09-28T02:17:59.864Z,89.83
2018-09-28T02:18:59.892Z,89.45
2018-09-28T02:19:59.825Z,89.45
2018-09-28T02:20:59.803Z,89.59
2018-09-28T02:21:59.789Z,89.54
2018-09-28T02:22:59.764Z,89.88
2018-09-28T02:23:59.750Z,89.64
2018-09-28T02:24:59.733Z,89.64
2018-09-28T02:25:59.702Z,89.54
2018-09-28T02:26:59.684Z,89.83
2018-09-28T02:27:59.662Z,90.02
2018-09-28T02:28:59.642Z,89.73
2018-09-28T02:29:59.621Z,89.73
2018-09-28T02:30:59.608Z,89.64
2018-09-28T02:31:59.582Z,90.02
2018-09-28T02:32:59.562Z,89.73
2018-09-28T02:33:59.541Z,90.11
2018-09-28T02:34:59.521Z,90.31
2018-09-28T02:35:59.501Z,90.31
2018-09-28T02:36:59.486Z,90.21
2018-09-28T02:37:59.468Z,90.21
2018-09-28T02:38:59.445Z,90.11
2018-09-28T02:39:59.424Z,90.97
2018-09-28T02:40:59.403Z,90.69
2018-09-28T02:41:59.382Z,90.78
2018-09-28T02:42:59.370Z,90.78
2018-09-28T02:43:59.340Z,90.21
2018-09-28T02:44:59.323Z,90.02
2018-09-28T02:45:59.305Z,90.11
2018-09-28T02:46:59.282Z,90.50
2018-09-28T02:47:59.261Z,90.31
2018-09-28T02:48:59.243Z,90.59
2018-09-28T02:49:59.223Z,90.31
2018-09-28T02:50:59.203Z,90.40
2018-09-28T02:51:59.199Z,90.40
2018-09-28T02:52:59.163Z,90.88
2018-09-28T02:53:59.141Z,90.31
2018-09-28T02:54:59.124Z,90.50
2018-09-28T02:55:59.113Z,90.88
2018-09-28T02:56:59.109Z,90.54
2018-09-28T02:57:59.069Z,90.92
2018-09-28T02:58:59.044Z,90.35
2018-09-28T02:59:59.036Z,90.54
2018-09-28T03:00:59.002Z,90.54
2018-09-28T03:01:59.021Z,90.35
2018-09-28T03:02:58.964Z,90.64
2018-09-28T03:03:58.942Z,90.35
2018-09-28T03:04:58.922Z,90.35
2018-09-28T03:05:58.915Z,90.25
2018-09-28T03:06:58.887Z,90.16
2018-09-28T03:07:58.864Z,90.16
2018-09-28T03:08:58.844Z,89.87
2018-09-28T03:09:58.823Z,89.87
2018-09-28T03:10:58.804Z,90.54
2018-09-28T03:11:58.789Z,90.45
2018-09-28T03:12:58.767Z,90.45
2018-09-28T03:13:58.755Z,91.02
2018-09-28T03:14:58.757Z,90.54
2018-09-28T03:15:58.705Z,90.45
2018-09-28T03:16:58.688Z,90.25
2018-09-28T03:17:58.666Z,90.54
2018-09-28T03:18:58.649Z,91.30
2018-09-28T03:19:58.625Z,91.02
2018-09-28T03:20:58.611Z,90.25
2018-09-28T03:21:58.588Z,90.73
2018-09-28T03:22:58.590Z,90.45
2018-09-28T03:23:58.545Z,90.54
2018-09-28T03:24:58.527Z,91.02
2018-09-28T03:25:58.565Z,90.83
2018-09-28T03:26:58.494Z,90.64
2018-09-28T03:27:58.468Z,90.92
2018-09-28T03:28:58.449Z,90.92
2018-09-28T03:29:58.428Z,91.02
2018-09-28T03:30:58.412Z,90.83
2018-09-28T03:31:58.389Z,91.40
2018-09-28T03:32:58.367Z,91.59
2018-09-28T03:33:58.363Z,92.16
2018-09-28T03:34:58.333Z,92.07
2018-09-28T03:35:58.317Z,92.36
2018-09-28T03:36:58.288Z,91.88
2018-09-28T03:37:58.270Z,91.59
2018-09-28T03:38:58.249Z,91.50
2018-09-28T03:39:58.237Z,91.88
2018-09-28T03:40:58.209Z,91.97
2018-09-28T03:41:58.192Z,91.97
2018-09-28T03:42:58.172Z,91.21
2018-09-28T03:43:58.151Z,92.07
2018-09-28T03:44:58.131Z,91.30
2018-09-28T03:45:58.112Z,91.69
2018-09-28T03:46:58.094Z,91.50
2018-09-28T03:47:58.072Z,91.59
2018-09-28T03:48:58.054Z,92.07
2018-09-28T03:49:58.031Z,92.16
2018-09-28T03:50:58.012Z,91.78
2018-09-28T03:51:57.998Z,91.88
2018-09-28T03:52:57.972Z,91.78
2018-09-28T03:53:57.957Z,92.55
2018-09-28T03:54:57.933Z,92.36
2018-09-28T03:55:57.925Z,92.74
2018-09-28T03:56:57.896Z,93.12
2018-09-28T03:57:58.660Z,93.74
2018-09-28T03:58:57.857Z,94.17
2018-09-28T03:59:57.835Z,94.22
2018-09-28T04:00:57.820Z,94.12
2018-09-28T04:01:57.799Z,94.70
2018-09-28T04:02:57.834Z,94.31
2018-09-28T04:03:57.757Z,95.07
2018-09-28T04:04:57.735Z,94.89
2018-09-28T04:05:57.719Z,95.84
2018-09-28T04:06:57.749Z,95.46
2018-09-28T04:07:57.676Z,95.84
2018-09-28T04:08:57.657Z,96.80
2018-09-28T04:09:57.640Z,95.84
2018-09-28T04:10:57.621Z,95.75
2018-09-28T04:11:57.600Z,96.89
2018-09-28T04:12:57.579Z,96.99
2018-09-28T04:13:57.560Z,96.80
2018-09-28T04:14:57.605Z,96.80
2018-09-28T04:15:57.523Z,96.80
2018-09-28T04:16:57.503Z,96.99
2018-09-28T04:17:57.481Z,97.18
2018-09-28T04:18:57.466Z,97.66
2018-09-28T04:19:57.447Z,97.56
2018-09-28T04:20:57.421Z,98.42
2018-09-28T04:21:57.497Z,98.13
2018-09-28T04:22:57.389Z,98.71
2018-09-28T04:23:57.365Z,97.85
2018-09-28T04:24:57.346Z,98.13
2018-09-28T04:25:57.325Z,97.94
2018-09-28T04:26:57.303Z,98.80
2018-09-28T04:27:57.284Z,99.09
2018-09-28T04:28:57.275Z,99.09
2018-09-28T04:29:57.247Z,99.38
2018-09-28T04:30:57.227Z,99.76
2018-09-28T04:31:57.221Z,99.99
2018-09-28T04:32:57.233Z,99.99
2018-09-28T04:33:57.252Z,99.99
2018-09-28T04:34:57.148Z,99.99
2018-09-28T04:35:57.129Z,99.99
2018-09-28T04:36:57.109Z,99.99
2018-09-28T04:37:57.093Z,99.99
2018-09-28T04:38:57.072Z,99.99
2018-09-28T04:39:57.056Z,99.99
2018-09-28T04:40:57.031Z,99.99
2018-09-28T04:41:57.011Z,99.99
2018-09-28T04:42:56.991Z,99.99
2018-09-28T04:43:56.971Z,99.99
2018-09-28T04:44:56.954Z,99.99
2018-09-28T04:45:56.937Z,99.99
2018-09-28T04:46:56.913Z,99.99
2018-09-28T04:47:56.893Z,99.99
2018-09-28T04:48:56.887Z,99.99
2018-09-28T04:49:56.865Z,99.99
2018-09-28T04:50:56.835Z,99.99
2018-09-28T04:51:56.814Z,99.99
2018-09-28T04:52:56.809Z,99.99
2018-09-28T04:53:56.780Z,99.99
2018-09-28T04:54:56.759Z,99.99
2018-09-28T04:55:56.737Z,99.99
2018-09-28T04:56:56.717Z,99.99
2018-09-28T04:57:56.699Z,99.99
2018-09-28T04:58:56.727Z,99.99
2018-09-28T04:59:56.659Z,99.99
2018-09-28T05:00:56.648Z,99.99
2018-09-28T05:01:56.622Z,99.99
2018-09-28T05:02:56.605Z,99.99
2018-09-28T05:03:56.581Z,99.99
2018-09-28T05:04:56.563Z,99.99
2018-09-28T05:05:56.548Z,99.99
2018-09-28T05:06:56.530Z,99.99
2018-09-28T05:07:56.507Z,99.99
2018-09-28T05:08:56.486Z,99.99
2018-09-28T05:09:56.464Z,99.99
2018-09-28T05:10:56.450Z,99.99
2018-09-28T05:11:56.426Z,99.99
2018-09-28T05:12:56.411Z,99.99
2018-09-28T05:13:56.433Z,99.99
2018-09-28T05:14:56.370Z,99.99
2018-09-28T05:15:56.355Z,99.99
2018-09-28T05:16:56.330Z,99.99
2018-09-28T05:17:56.310Z,99.99
2018-09-28T05:18:56.305Z,99.99
2018-09-28T05:19:56.270Z,99.99
2018-09-28T05:20:56.253Z,99.99
2018-09-28T05:21:56.234Z,99.99
2018-09-28T05:22:56.213Z,99.99
2018-09-28T05:23:56.193Z,99.99
2018-09-28T05:24:56.183Z,99.99
2018-09-28T05:25:56.161Z,99.99
2018-09-28T05:26:56.140Z,99.99
2018-09-28T05:27:56.117Z,99.99
2018-09-28T05:28:56.098Z,99.99
2018-09-28T05:29:56.082Z,99.99
2018-09-28T05:30:56.077Z,99.99
2018-09-28T05:31:56.260Z,99.99
2018-09-28T05:32:56.156Z,99.99
2018-09-28T05:33:56.001Z,99.99
2018-09-28T05:34:55.981Z,99.99
2018-09-28T05:35:55.963Z,99.99
2018-09-28T05:36:55.945Z,99.99
2018-09-28T05:37:55.923Z,99.99
2018-09-28T05:38:55.904Z,99.99
2018-09-28T05:39:55.889Z,99.99
2018-09-28T05:40:55.866Z,99.99
2018-09-28T05:41:55.845Z,99.99
2018-09-28T05:42:55.832Z,99.99
2018-09-28T05:43:55.809Z,99.99
2018-09-28T05:44:55.790Z,99.99
2018-09-28T05:45:55.768Z,99.99
2018-09-28T05:46:55.755Z,99.99
2018-09-28T05:47:55.730Z,99.99
2018-09-28T05:48:55.709Z,99.99
2018-09-28T05:49:55.691Z,99.99
2018-09-28T05:50:55.673Z,99.99
2018-09-28T05:51:55.654Z,99.99
2018-09-28T05:52:55.633Z,99.99
2018-09-28T05:53:55.619Z,99.99
2018-09-28T05:54:55.598Z,99.99
2018-09-28T05:55:55.575Z,99.99
2018-09-28T05:56:55.555Z,99.99
2018-09-28T05:57:55.538Z,99.99
2018-09-28T05:58:55.529Z,99.99
2018-09-28T05:59:55.507Z,99.99
2018-09-28T06:00:55.482Z,99.99
2018-09-28T06:01:55.482Z,99.99
2018-09-28T06:02:55.441Z,99.99
2018-09-28T06:03:55.422Z,99.99
2018-09-28T06:04:55.403Z,99.99
2018-09-28T06:05:55.388Z,99.99
2018-09-28T06:06:55.364Z,99.99
2018-09-28T06:07:55.355Z,99.99
2018-09-28T06:08:55.325Z,99.99
2018-09-28T06:09:55.307Z,99.99
2018-09-28T06:10:55.287Z,99.99
2018-09-28T06:11:55.271Z,99.99
2018-09-28T06:12:55.247Z,99.99
2018-09-28T06:13:55.235Z,99.99
2018-09-28T06:14:55.211Z,99.99
2018-09-28T06:15:55.202Z,99.99
2018-09-28T06:16:55.170Z,99.99
2018-09-28T06:17:55.198Z,99.99
2018-09-28T06:18:55.245Z,99.99
2018-09-28T06:19:55.125Z,99.99
2018-09-28T06:20:55.096Z,99.99
2018-09-28T06:21:55.096Z,99.99
2018-09-28T06:22:55.060Z,99.99
2018-09-28T06:23:55.037Z,99.99
2018-09-28T06:24:55.019Z,99.99
2018-09-28T06:25:55.026Z,99.99
2018-09-28T06:26:54.980Z,99.99
2018-09-28T06:27:54.960Z,99.99
2018-09-28T06:28:54.942Z,99.99
2018-09-28T06:29:54.969Z,99.99
2018-09-28T06:30:54.903Z,99.99
2018-09-28T06:31:54.883Z,99.99
2018-09-28T06:32:54.864Z,99.99
2018-09-28T06:33:54.847Z,99.99
2018-09-28T06:34:54.828Z,99.99
2018-09-28T06:35:54.869Z,99.99
2018-09-28T06:36:54.789Z,99.99
2018-09-28T06:37:54.768Z,99.99
2018-09-28T06:38:54.753Z,99.99
2018-09-28T06:39:54.731Z,99.99
2018-09-28T06:40:54.726Z,99.99
2018-09-28T06:41:54.756Z,99.99
2018-09-28T06:42:54.675Z,99.99
2018-09-28T06:43:54.654Z,99.99
2018-09-28T06:44:54.634Z,99.99
2018-09-28T06:45:54.616Z,99.99
2018-09-28T06:46:54.623Z,99.99
2018-09-28T06:47:54.657Z,99.99
2018-09-28T06:48:54.558Z,99.99
2018-09-28T06:49:54.539Z,99.99
2018-09-28T06:50:54.525Z,99.99
2018-09-28T06:51:54.502Z,99.99
2018-09-28T06:52:54.484Z,99.99
2018-09-28T06:53:54.495Z,99.99
2018-09-28T06:54:54.444Z,99.99
2018-09-28T06:55:54.423Z,99.99
2018-09-28T06:56:54.408Z,99.99
2018-09-28T06:57:54.385Z,99.99
2018-09-28T06:58:54.368Z,99.99
2018-09-28T06:59:54.424Z,99.99
2018-09-28T07:00:54.336Z,99.99
2018-09-28T07:01:54.318Z,99.99
2018-09-28T07:02:54.297Z,99.99
2018-09-28T07:03:54.305Z,99.99
2018-09-28T07:04:54.252Z,99.48
2018-09-28T07:05:54.259Z,98.90
2018-09-28T07:06:54.213Z,99.00
2018-09-28T07:07:54.194Z,98.24
2018-09-28T07:08:54.174Z,98.04
2018-09-28T07:09:54.156Z,98.14
2018-09-28T07:10:54.143Z,97.85
2018-09-28T07:11:54.215Z,97.75
2018-09-28T07:12:54.144Z,98.90
2018-09-28T07:13:54.080Z,98.71
2018-09-28T07:14:54.068Z,98.71
2018-09-28T07:15:54.042Z,97.95
2018-09-28T07:16:54.124Z,97.37
2018-09-28T07:17:54.059Z,96.61
2018-09-28T07:18:53.986Z,96.51
2018-09-28T07:19:53.968Z,95.56
2018-09-28T07:20:53.946Z,94.89
2018-09-28T07:21:53.927Z,94.21
2018-09-28T07:22:53.917Z,94.89
2018-09-28T07:23:53.951Z,94.89
2018-09-28T07:24:53.886Z,94.79
2018-09-28T07:25:53.850Z,94.79
2018-09-28T07:26:53.832Z,95.27
2018-09-28T07:27:53.812Z,95.27
2018-09-28T07:28:53.792Z,95.07
2018-09-28T07:29:53.817Z,94.79
2018-09-28T07:30:53.767Z,95.46
2018-09-28T07:31:53.739Z,95.46
2018-09-28T07:32:53.717Z,95.94
2018-09-28T07:33:53.702Z,95.17
2018-09-28T07:34:53.723Z,95.07
2018-09-28T07:35:53.762Z,94.41
2018-09-28T07:36:53.718Z,94.02
2018-09-28T07:37:53.621Z,93.45
2018-09-28T07:38:53.602Z,93.16
2018-09-28T07:39:53.584Z,93.26
2018-09-28T07:40:53.568Z,94.41
2018-09-28T07:41:53.654Z,93.26
2018-09-28T07:42:53.528Z,93.07
2018-09-28T07:43:53.513Z,92.40
2018-09-28T07:44:53.486Z,92.02
2018-09-28T07:45:53.471Z,92.30
2018-09-28T07:46:53.449Z,92.49
2018-09-28T07:47:53.497Z,93.16
2018-09-28T07:48:53.412Z,92.88
2018-09-28T07:49:53.395Z,93.12
2018-09-28T07:50:53.374Z,92.92
2018-09-28T07:51:53.355Z,91.92
2018-09-28T07:52:53.337Z,91.35
2018-09-28T07:53:53.317Z,91.39
2018-09-28T07:54:53.298Z,91.92
2018-09-28T07:55:53.348Z,92.25
2018-09-28T07:56:53.295Z,92.25
2018-09-28T07:57:53.240Z,91.39
2018-09-28T07:58:53.222Z,90.82
2018-09-28T07:59:53.202Z,91.01
2018-09-28T08:00:53.186Z,91.39
2018-09-28T08:01:53.174Z,90.72
2018-09-28T08:02:53.146Z,90.63
2018-09-28T08:03:53.182Z,90.91
2018-09-28T08:04:53.108Z,90.82
2018-09-28T08:05:53.090Z,90.58
2018-09-28T08:06:53.069Z,90.24
2018-09-28T08:07:53.053Z,89.67
2018-09-28T08:08:53.034Z,89.76
2018-09-28T08:09:53.023Z,88.62
2018-09-28T08:10:52.996Z,88.52
2018-09-28T08:11:52.978Z,87.85
2018-09-28T08:12:52.956Z,87.27
2018-09-28T08:13:52.938Z,87.66
2018-09-28T08:14:52.919Z,87.66
2018-09-28T08:15:52.899Z,87.47
2018-09-28T08:16:52.884Z,87.66
2018-09-28T08:17:52.876Z,87.27
2018-09-28T08:18:52.843Z,87.18
2018-09-28T08:19:52.849Z,87.18
2018-09-28T08:20:52.805Z,86.70
2018-09-28T08:21:52.790Z,86.70
2018-09-28T08:22:52.767Z,86.90
2018-09-28T08:23:52.748Z,86.13
2018-09-28T08:24:52.735Z,86.13
2018-09-28T08:25:52.718Z,85.36
2018-09-28T08:26:52.692Z,85.94
2018-09-28T08:27:52.673Z,85.94
2018-09-28T08:28:52.666Z,84.79
2018-09-28T08:29:52.636Z,84.31
2018-09-28T08:30:52.617Z,84.41
2018-09-28T08:31:52.596Z,85.08
2018-09-28T08:32:52.579Z,84.22
2018-09-28T08:33:52.559Z,84.41
2018-09-28T08:34:52.544Z,84.41
2018-09-28T08:35:52.522Z,84.31
2018-09-28T08:36:52.586Z,84.69
2018-09-28T08:37:52.484Z,84.12
2018-09-28T08:38:52.470Z,84.41
2018-09-28T08:39:52.446Z,84.12
2018-09-28T08:40:52.427Z,84.31
2018-09-28T08:41:52.488Z,84.98
2018-09-28T08:42:52.390Z,85.08
2018-09-28T08:43:52.371Z,84.69
2018-09-28T08:44:52.354Z,84.50
2018-09-28T08:45:52.340Z,84.59
2018-09-28T08:46:52.318Z,83.45
2018-09-28T08:47:52.294Z,83.06
2018-09-28T08:48:52.275Z,83.73
2018-09-28T08:49:52.259Z,84.02
2018-09-28T08:50:52.243Z,84.69
2018-09-28T08:51:52.219Z,84.41
2018-09-28T08:52:52.204Z,84.22
2018-09-28T08:53:52.186Z,83.16
2018-09-28T08:54:52.167Z,82.11
2018-09-28T08:55:52.144Z,82.20
2018-09-28T08:56:52.125Z,81.15
2018-09-28T08:57:52.112Z,80.10
2018-09-28T08:58:52.108Z,79.91
2018-09-28T08:59:52.070Z,79.43
2018-09-28T09:00:52.049Z,79.52
2018-09-28T09:01:52.038Z,79.47
2018-09-28T09:02:52.012Z,79.24
2018-09-28T09:03:51.992Z,80.00
2018-09-28T09:04:51.974Z,79.37
2018-09-28T09:05:51.956Z,78.70
2018-09-28T09:06:51.937Z,78.70
2018-09-28T09:07:51.919Z,78.80
2018-09-28T09:08:51.899Z,79.37
2018-09-28T09:09:51.882Z,80.04
2018-09-28T09:10:51.881Z,80.33
2018-09-28T09:11:51.841Z,79.75
2018-09-28T09:12:51.824Z,80.14
2018-09-28T09:13:51.814Z,79.47
2018-09-28T09:14:51.786Z,78.61
2018-09-28T09:15:51.768Z,78.89
2018-09-28T09:16:51.795Z,78.99
2018-09-28T09:17:51.791Z,79.28
2018-09-28T09:18:51.714Z,79.95
2018-09-28T09:19:51.691Z,79.47
2018-09-28T09:20:51.674Z,79.18
2018-09-28T09:21:51.659Z,79.28
2018-09-28T09:22:51.638Z,79.33
2018-09-28T09:23:51.632Z,79.05
2018-09-28T09:24:51.599Z,79.28
2018-09-28T09:25:51.592Z,78.86
2018-09-28T09:26:51.562Z,78.80
2018-09-28T09:27:51.544Z,77.51
2018-09-28T09:28:51.524Z,77.36
2018-09-28T09:29:51.514Z,77.33
2018-09-28T09:30:51.486Z,77.42
2018-09-28T09:31:51.469Z,77.61
2018-09-28T09:32:51.455Z,76.65
2018-09-28T09:33:51.444Z,77.33
2018-09-28T09:34:51.412Z,77.90
2018-09-28T09:35:51.393Z,77.61
2018-09-28T09:36:51.374Z,77.42
2018-09-28T09:37:51.360Z,78.19
2018-09-28T09:38:51.340Z,78.19
2018-09-28T09:39:51.317Z,78.47
2018-09-28T09:40:51.298Z,78.86
2018-09-28T09:41:51.283Z,78.57
2018-09-28T09:42:51.262Z,79.33
2018-09-28T09:43:51.243Z,78.66
2018-09-28T09:44:51.229Z,78.38
2018-09-28T09:45:51.213Z,78.57
2018-09-28T09:46:51.186Z,78.61
2018-09-28T09:47:51.174Z,78.47
2018-09-28T09:48:51.149Z,78.57
2018-09-28T09:49:51.136Z,78.70
2018-09-28T09:50:51.114Z,78.61
2018-09-28T09:51:51.095Z,78.51
2018-09-28T09:52:51.075Z,78.13
2018-09-28T09:53:51.057Z,77.75
2018-09-28T09:54:51.040Z,78.13
2018-09-28T09:55:51.020Z,78.13
2018-09-28T09:56:51.002Z,77.65
2018-09-28T09:57:51.106Z,77.17
2018-09-28T09:58:50.964Z,78.13
2018-09-28T09:59:50.949Z,77.84
2018-09-28T10:00:50.929Z,77.84
2018-09-28T10:01:50.907Z,77.75
2018-09-28T10:02:50.889Z,77.84
2018-09-28T10:03:50.870Z,77.55
2018-09-28T10:04:50.851Z,77.55
2018-09-28T10:05:50.832Z,78.51
2018-09-28T10:06:50.816Z,77.94
2018-09-28T10:07:50.796Z,77.84
2018-09-28T10:08:50.793Z,78.13
2018-09-28T10:09:50.761Z,77.55
2018-09-28T10:10:50.738Z,78.61
2018-09-28T10:11:50.741Z,77.84
2018-09-28T10:12:50.761Z,77.46
2018-09-28T10:13:50.694Z,77.46
2018-09-28T10:14:50.667Z,77.08
2018-09-28T10:15:50.653Z,76.50
2018-09-28T10:16:50.629Z,76.60
2018-09-28T10:17:50.623Z,77.26
2018-09-28T10:18:50.590Z,77.08
2018-09-28T10:19:50.573Z,75.54
2018-09-28T10:20:50.555Z,75.16
2018-09-28T10:21:50.557Z,75.26
2018-09-28T10:22:50.516Z,75.07
2018-09-28T10:23:50.501Z,74.49
2018-09-28T10:24:50.482Z,73.72
2018-09-28T10:25:50.467Z,74.01
2018-09-28T10:26:50.443Z,74.20
2018-09-28T10:27:50.485Z,74.87
2018-09-28T10:28:50.404Z,74.20
2018-09-28T10:29:50.385Z,74.97
2018-09-28T10:30:50.366Z,76.60
2018-09-28T10:31:50.346Z,75.35
2018-09-28T10:32:50.328Z,73.44
2018-09-28T10:33:50.322Z,72.86
2018-09-28T10:34:50.396Z,71.81
2018-09-28T10:35:50.272Z,72.90
2018-09-28T10:36:50.254Z,72.96
2018-09-28T10:37:50.251Z,70.37
2018-09-28T10:38:50.218Z,70.28
2018-09-28T10:39:50.268Z,70.56
2018-09-28T10:40:50.213Z,70.18
2018-09-28T10:41:50.164Z,69.03
2018-09-28T10:42:50.145Z,68.55
2018-09-28T10:43:50.124Z,68.84
2018-09-28T10:44:50.167Z,67.21
2018-09-28T10:45:50.172Z,67.69
2018-09-28T10:46:50.070Z,69.07
2018-09-28T10:47:50.051Z,67.69
2018-09-28T10:48:50.032Z,68.11
2018-09-28T10:49:50.016Z,68.01
2018-09-28T10:50:50.048Z,68.40
2018-09-28T10:51:50.012Z,67.91
2018-09-28T10:52:50.077Z,66.86
2018-09-28T10:53:49.941Z,66.86
2018-09-28T10:54:49.922Z,67.54
2018-09-28T10:55:49.912Z,67.54
2018-09-28T10:56:49.887Z,67.05
2018-09-28T10:57:49.867Z,65.84
2018-09-28T10:58:49.868Z,65.46
2018-09-28T10:59:49.836Z,67.09
2018-09-28T11:00:49.821Z,66.61
2018-09-28T11:01:49.791Z,64.59
2018-09-28T11:02:49.775Z,64.98
2018-09-28T11:03:49.825Z,66.13
2018-09-28T11:04:49.796Z,65.36
2018-09-28T11:05:49.720Z,63.73
2018-09-28T11:06:49.707Z,64.50
2018-09-28T11:07:49.686Z,65.75
2018-09-28T11:08:49.721Z,66.51
2018-09-28T11:09:49.676Z,67.28
2018-09-28T11:10:49.662Z,67.57
2018-09-28T11:11:49.614Z,67.09
2018-09-28T11:12:49.656Z,67.28
2018-09-28T11:13:49.597Z,67.28
2018-09-28T11:14:49.559Z,65.94
2018-09-28T11:15:49.632Z,65.75
2018-09-28T11:16:49.519Z,65.84
2018-09-28T11:17:49.500Z,66.03
2018-09-28T11:18:49.562Z,65.36
2018-09-28T11:19:49.467Z,65.36
2018-09-28T11:20:49.446Z,66.71
2018-09-28T11:21:49.488Z,65.36
2018-09-28T11:22:49.465Z,66.03
2018-09-28T11:23:49.391Z,68.62
2018-09-28T11:24:49.374Z,67.47
2018-09-28T11:25:49.371Z,66.03
2018-09-28T11:26:49.337Z,65.75
2018-09-28T11:27:49.378Z,66.51
2018-09-28T11:28:49.300Z,66.99
2018-09-28T11:29:49.282Z,67.38
2018-09-28T11:30:49.269Z,66.99
2018-09-28T11:31:49.246Z,68.05
2018-09-28T11:32:49.228Z,67.95
2018-09-28T11:33:49.219Z,66.89
2018-09-28T11:34:49.230Z,67.28
2018-09-28T11:35:49.238Z,67.38
2018-09-28T11:36:49.155Z,67.09
2018-09-28T11:37:49.260Z,67.85
2018-09-28T11:38:49.120Z,68.59
2018-09-28T11:39:49.158Z,68.14
2018-09-28T11:40:49.081Z,68.01
2018-09-28T11:41:49.064Z,67.05
2018-09-28T11:42:49.047Z,66.67
2018-09-28T11:43:49.080Z,66.32
2018-09-28T11:44:49.009Z,66.29
2018-09-28T11:45:49.004Z,66.67
2018-09-28T11:46:48.974Z,66.38
2018-09-28T11:47:48.955Z,67.05
2018-09-28T11:48:48.936Z,66.96
2018-09-28T11:49:48.919Z,65.91
2018-09-28T11:50:48.900Z,65.42
2018-09-28T11:51:49.036Z,65.62
2018-09-28T11:52:48.871Z,65.81
2018-09-28T11:53:48.847Z,64.95
2018-09-28T11:54:48.835Z,64.56
2018-09-28T11:55:48.812Z,65.05
2018-09-28T11:56:48.802Z,64.22
2018-09-28T11:57:48.776Z,63.03
2018-09-28T11:58:48.761Z,63.99
2018-09-28T11:59:48.736Z,63.92
2018-09-28T12:00:48.722Z,63.45
2018-09-28T12:01:48.705Z,63.06
2018-09-28T12:02:48.684Z,62.77
2018-09-28T12:03:48.770Z,61.15
2018-09-28T12:04:48.888Z,61.72
2018-09-28T12:05:48.641Z,61.82
2018-09-28T12:06:48.724Z,62.01
2018-09-28T12:07:48.589Z,62.30
2018-09-28T12:08:48.573Z,61.91
2018-09-28T12:09:48.662Z,62.87
2018-09-28T12:10:48.558Z,62.30
2018-09-28T12:11:49.083Z,60.86
2018-09-28T12:12:48.566Z,60.86
2018-09-28T12:13:48.512Z,60.57
2018-09-28T12:14:48.475Z,60.38
2018-09-28T12:15:48.469Z,59.04
2018-09-28T12:16:48.431Z,59.04
2018-09-28T12:17:48.410Z,58.37
2018-09-28T12:18:48.409Z,58.46
2018-09-28T12:19:48.374Z,58.75
2018-09-28T12:20:48.357Z,58.65
2018-09-28T12:21:48.366Z,58.56
2018-09-28T12:22:48.326Z,59.80
2018-09-28T12:23:48.299Z,59.80
2018-09-28T12:24:48.396Z,59.80
2018-09-28T12:25:48.268Z,59.61
2018-09-28T12:26:48.620Z,59.42
2018-09-28T12:27:48.280Z,59.04
2018-09-28T12:28:48.224Z,59.13
2018-09-28T12:29:48.207Z,58.65
2018-09-28T12:30:48.248Z,58.37
2018-09-28T12:31:48.156Z,59.13
2018-09-28T12:32:48.142Z,60.19
2018-09-28T12:33:48.226Z,59.90
2018-09-28T12:34:48.107Z,60.76
2018-09-28T12:35:48.086Z,60.67
2018-09-28T12:36:48.260Z,60.96
2018-09-28T12:37:48.052Z,60.76
2018-09-28T12:38:48.029Z,61.34
2018-09-28T12:39:48.084Z,62.10
2018-09-28T12:40:47.992Z,62.10
2018-09-28T12:41:47.974Z,62.10
2018-09-28T12:42:48.045Z,61.15
2018-09-28T12:43:47.938Z,60.67
2018-09-28T12:44:47.991Z,60.38
2018-09-28T12:45:47.963Z,61.43
2018-09-28T12:46:47.891Z,60.67
2018-09-28T12:47:47.866Z,60.19
2018-09-28T12:48:47.903Z,61.05
2018-09-28T12:49:47.834Z,60.86
2018-09-28T12:50:47.868Z,60.76
2018-09-28T12:51:47.795Z,60.70